Time;durP1;ratioP1;P1;durP2;ratioP2;P2;SDS_P1;SDS_P2;PMS_P1;PMS_P2;Temp;Humidity;BMP_temperature;BMP_pressure;BME280_temperature;BME280_humidity;BME280_pressure;Samples;Min_cycle;Max_cycle;Signal;HPM_P1;HPM_P2
2023/12/11 00:00:14;;;;;;;30.73;5.57;;;;;;;8.69;100.00;99788.88;5066908;28;20032;-62
2023/12/11 00:02:40;;;;;;;34.53;7.47;;;;;;;8.70;100.00;99784.59;5065692;28;20060;-63
2023/12/11 00:05:05;;;;;;;23.67;5.35;;;;;;;8.67;100.00;99776.78;5066661;28;20028;-62
2023/12/11 00:07:30;;;;;;;28.50;6.07;;;;;;;8.63;100.00;99779.28;5065103;28;20525;-62
2023/12/11 00:09:56;;;;;;;30.13;5.63;;;;;;;8.60;100.00;99779.19;5054939;28;20021;-62
2023/12/11 00:12:21;;;;;;;27.25;6.13;;;;;;;8.60;100.00;99783.53;5039647;28;20029;-63
2023/12/11 00:14:46;;;;;;;31.20;5.40;;;;;;;8.56;100.00;99777.41;5039973;28;20073;-63
2023/12/11 00:17:12;;;;;;;26.85;5.32;;;;;;;8.54;100.00;99779.03;5040187;28;20043;-62
2023/12/11 00:19:37;;;;;;;31.80;6.75;;;;;;;8.51;100.00;99781.53;5046654;28;20393;-62
2023/12/11 00:22:02;;;;;;;25.88;5.80;;;;;;;8.48;100.00;99777.19;5046693;28;20033;-62
2023/12/11 00:24:28;;;;;;;34.83;6.85;;;;;;;8.48;100.00;99784.06;5059855;28;20111;-62
2023/12/11 00:26:53;;;;;;;31.27;5.72;;;;;;;8.48;100.00;99776.31;5046884;28;20036;-62
2023/12/11 00:29:18;;;;;;;27.95;5.88;;;;;;;8.48;100.00;99769.44;5040767;28;20096;-63
2023/12/11 00:31:43;;;;;;;28.67;6.55;;;;;;;8.46;100.00;99763.38;5041018;28;20498;-62
2023/12/11 00:34:09;;;;;;;27.05;5.85;;;;;;;8.48;100.00;99760.81;5049752;28;20048;-62
2023/12/11 00:36:34;;;;;;;32.45;6.18;;;;;;;8.50;100.00;99761.72;5050573;28;20033;-62
2023/12/11 00:39:00;;;;;;;25.33;6.00;;;;;;;8.48;100.00;99769.44;5048780;28;20024;-62
2023/12/11 00:41:25;;;;;;;23.33;5.55;;;;;;;8.51;100.00;99771.19;5037311;28;20064;-62
2023/12/11 00:43:50;;;;;;;21.05;5.60;;;;;;;8.54;100.00;99768.72;5036256;28;20020;-62
2023/12/11 00:46:22;;;;;;;24.27;5.43;;;;;;;8.54;100.00;99771.31;5062927;28;20028;-62
2023/12/11 00:48:48;;;;;;;28.73;5.63;;;;;;;8.51;100.00;99769.50;5044164;28;20508;-62
2023/12/11 00:51:19;;;;;;;31.13;6.20;;;;;;;8.48;100.00;99758.22;5068820;28;20102;-62
2023/12/11 00:53:45;;;;;;;25.05;5.47;;;;;;;8.48;100.00;99758.22;5061577;28;20548;-63
2023/12/11 00:56:11;;;;;;;31.55;5.85;;;;;;;8.46;100.00;99762.47;5037085;28;20037;-62
2023/12/11 00:58:36;;;;;;;30.50;6.57;;;;;;;8.48;100.00;99756.53;5069667;28;20601;-62
2023/12/11 01:01:01;;;;;;;32.70;7.80;;;;;;;8.56;100.00;99751.59;5054675;28;20020;-62
2023/12/11 01:03:27;;;;;;;31.40;6.07;;;;;;;8.58;100.00;99751.63;5057127;28;20587;-63
2023/12/11 01:05:52;;;;;;;31.25;7.22;;;;;;;8.64;100.00;99750.03;5054688;28;20033;-63
2023/12/11 01:08:17;;;;;;;26.70;5.97;;;;;;;8.66;100.00;99742.31;5042016;28;20026;-63
2023/12/11 01:10:43;;;;;;;36.83;6.22;;;;;;;8.67;100.00;99738.03;5056102;28;20016;-62
2023/12/11 01:13:08;;;;;;;26.20;5.38;;;;;;;8.64;100.00;99744.88;5037929;28;20259;-62
2023/12/11 01:15:34;;;;;;;24.35;5.28;;;;;;;8.69;100.00;99741.53;5060867;28;20106;-63
2023/12/11 01:17:59;;;;;;;36.95;7.85;;;;;;;8.70;100.00;99738.09;5030080;28;20025;-62
2023/12/11 01:20:24;;;;;;;31.13;7.22;;;;;;;8.67;100.00;99731.13;5057529;28;20369;-62
2023/12/11 01:22:49;;;;;;;35.22;6.65;;;;;;;8.68;100.00;99729.44;5054730;28;20107;-62
2023/12/11 01:25:16;;;;;;;31.70;5.88;;;;;;;8.67;100.00;99727.72;5057960;28;20024;-62
2023/12/11 01:27:41;;;;;;;33.53;7.03;;;;;;;8.69;100.00;99726.88;5048551;28;20022;-62
2023/12/11 01:30:07;;;;;;;31.30;5.82;;;;;;;8.72;100.00;99731.25;5049352;28;20060;-62
2023/12/11 01:32:32;;;;;;;28.95;5.40;;;;;;;8.78;100.00;99731.38;5049391;28;20025;-62
2023/12/11 01:34:57;;;;;;;29.15;6.00;;;;;;;8.75;100.00;99720.97;5049612;28;20465;-62
2023/12/11 01:37:23;;;;;;;31.05;6.38;;;;;;;8.74;100.00;99725.28;5048721;28;20029;-62
2023/12/11 01:39:48;;;;;;;30.83;6.47;;;;;;;8.75;100.00;99710.66;5048943;28;20094;-62
2023/12/11 01:42:13;;;;;;;24.83;5.55;;;;;;;8.71;100.00;99714.00;5047362;28;20027;-62
2023/12/11 01:44:39;;;;;;;33.92;5.75;;;;;;;8.74;100.00;99719.25;5048895;28;20079;-62
2023/12/11 01:47:05;;;;;;;27.88;5.00;;;;;;;8.73;100.00;99710.63;5052247;28;20047;-62
2023/12/11 01:49:31;;;;;;;25.60;5.75;;;;;;;8.75;100.00;99716.69;5056413;28;20040;-63
2023/12/11 01:51:56;;;;;;;24.45;4.82;;;;;;;8.75;100.00;99715.81;5037907;28;20112;-62
2023/12/11 01:54:22;;;;;;;29.80;4.82;;;;;;;8.84;100.00;99708.28;5047659;28;20036;-62
2023/12/11 01:56:47;;;;;;;28.65;5.05;;;;;;;8.86;100.00;99705.72;5049166;28;20024;-63
2023/12/11 01:59:13;;;;;;;28.88;5.50;;;;;;;8.89;100.00;99692.84;5046398;28;20370;-63
2023/12/11 02:01:40;;;;;;;28.50;7.35;;;;;;;8.89;100.00;99691.16;5047830;28;20077;-62
2023/12/11 02:04:07;;;;;;;32.90;5.65;;;;;;;8.91;100.00;99686.00;5046142;28;20535;-62
2023/12/11 02:06:33;;;;;;;26.30;5.85;;;;;;;8.91;100.00;99691.19;5048818;28;20342;-62
2023/12/11 02:08:58;;;;;;;25.77;4.72;;;;;;;8.95;100.00;99679.19;5045144;28;20024;-62
2023/12/11 02:11:24;;;;;;;23.27;4.78;;;;;;;9.00;100.00;99682.75;5047351;28;20029;-62
2023/12/11 02:13:49;;;;;;;25.80;5.47;;;;;;;9.00;100.00;99669.81;5046626;28;20372;-63
2023/12/11 02:16:15;;;;;;;31.85;5.63;;;;;;;9.04;100.00;99674.22;5047942;28;20374;-63
2023/12/11 02:18:41;;;;;;;21.15;4.97;;;;;;;9.01;100.00;99679.34;5047975;28;20025;-63
2023/12/11 02:21:07;;;;;;;28.13;5.88;;;;;;;8.99;100.00;99681.00;5047834;28;20032;-62
2023/12/11 02:23:46;;;;;;;26.17;6.13;;;;;;;8.97;100.00;99674.94;5048260;28;20361;-62
2023/12/11 02:26:16;;;;;;;22.83;5.28;;;;;;;9.02;100.00;99668.13;5047491;28;20024;-62
2023/12/11 02:28:42;;;;;;;27.20;4.82;;;;;;;9.01;100.00;99671.59;5047304;28;20029;-63
2023/12/11 02:31:07;;;;;;;26.85;6.72;;;;;;;9.00;100.00;99669.81;5041332;28;20056;-62
2023/12/11 02:33:33;;;;;;;24.48;6.15;;;;;;;8.99;100.00;99660.34;5028293;28;20063;-62
2023/12/11 02:35:58;;;;;;;25.55;5.55;;;;;;;9.00;100.00;99667.22;5042677;28;20039;-62
2023/12/11 02:38:24;;;;;;;24.02;5.70;;;;;;;8.98;100.00;99664.63;5053161;28;20028;-62
2023/12/11 02:40:49;;;;;;;28.65;5.60;;;;;;;9.01;100.00;99656.91;5042126;28;20016;-62
2023/12/11 02:43:14;;;;;;;25.35;5.63;;;;;;;9.04;100.00;99656.13;5065687;28;20032;-62
2023/12/11 02:45:42;;;;;;;28.02;5.20;;;;;;;9.02;100.00;99650.06;5034763;28;20032;-63
2023/12/11 02:48:07;;;;;;;26.48;5.10;;;;;;;8.97;100.00;99643.94;5040924;28;20044;-62
2023/12/11 02:50:33;;;;;;;23.88;5.45;;;;;;;8.95;100.00;99641.31;5041797;28;20028;-63
2023/12/11 02:52:59;;;;;;;25.92;5.18;;;;;;;8.93;100.00;99640.41;5036159;28;20056;-63
2023/12/11 02:55:25;;;;;;;25.00;4.72;;;;;;;8.93;100.00;99643.00;5047569;28;20033;-62
2023/12/11 02:57:53;;;;;;;25.48;5.55;;;;;;;8.92;100.00;99641.25;5047270;28;20602;-62
2023/12/11 03:00:18;;;;;;;29.80;5.00;;;;;;;8.93;100.00;99629.19;5047438;28;20535;-62
2023/12/11 03:02:44;;;;;;;22.50;4.47;;;;;;;8.94;100.00;99613.72;5047862;28;20033;-63
2023/12/11 03:05:09;;;;;;;16.58;3.80;;;;;;;8.92;100.00;99604.22;5047541;28;20027;-62
2023/12/11 03:07:34;;;;;;;24.88;4.53;;;;;;;8.86;100.00;99610.13;5046501;28;20036;-62
2023/12/11 03:10:00;;;;;;;28.65;5.22;;;;;;;8.82;100.00;99600.56;5047052;28;20427;-63
2023/12/11 03:12:25;;;;;;;26.05;5.57;;;;;;;8.77;100.00;99605.66;5046485;28;20120;-62
2023/12/11 03:14:50;;;;;;;26.63;4.95;;;;;;;8.71;100.00;99605.53;5048147;28;20527;-63
2023/12/11 03:17:15;;;;;;;27.58;5.78;;;;;;;8.68;100.00;99592.56;5045445;28;20369;-62
2023/12/11 03:19:41;;;;;;;26.63;4.30;;;;;;;8.67;100.00;99585.66;5048201;28;20040;-62
2023/12/11 03:22:06;;;;;;;28.67;5.07;;;;;;;8.62;100.00;99593.28;5051913;28;20475;-62
2023/12/11 03:24:31;;;;;;;22.77;4.85;;;;;;;8.61;100.00;99583.81;5042680;28;20025;-62
2023/12/11 03:26:56;;;;;;;23.50;5.05;;;;;;;8.57;100.00;99588.06;5053052;28;20456;-63
2023/12/11 03:29:22;;;;;;;23.92;4.32;;;;;;;8.58;100.00;99581.19;5052606;28;20032;-62
2023/12/11 03:31:47;;;;;;;28.90;5.45;;;;;;;8.59;100.00;99585.50;5052270;28;20453;-62
2023/12/11 03:34:12;;;;;;;28.25;5.38;;;;;;;8.60;100.00;99585.53;5049452;28;20079;-62
2023/12/11 03:36:38;;;;;;;23.50;5.50;;;;;;;8.56;100.00;99576.00;5049204;28;20074;-63
2023/12/11 03:39:03;;;;;;;24.60;5.13;;;;;;;8.59;100.00;99580.34;5044599;28;20092;-61
2023/12/11 03:41:28;;;;;;;19.98;4.00;;;;;;;8.57;100.00;99587.16;5053101;28;20031;-62
2023/12/11 03:43:54;;;;;;;21.98;4.28;;;;;;;8.56;100.00;99585.44;5044565;28;20029;-62
2023/12/11 03:46:19;;;;;;;26.98;4.95;;;;;;;8.62;100.00;99588.13;5044064;28;20942;-62
2023/12/11 03:48:44;;;;;;;19.13;3.78;;;;;;;8.64;100.00;99589.91;5046973;28;20608;-63
2023/12/11 03:51:09;;;;;;;22.75;4.32;;;;;;;8.64;100.00;99597.66;5046277;28;20048;-63
2023/12/11 03:53:35;;;;;;;17.23;3.20;;;;;;;8.68;100.00;99585.69;5048800;28;20488;-62
2023/12/11 03:56:00;;;;;;;15.15;3.70;;;;;;;8.70;100.00;99589.16;5046997;28;20029;-62
2023/12/11 03:58:25;;;;;;;19.80;4.15;;;;;;;8.65;100.00;99591.66;5040487;28;20025;-62
2023/12/11 04:00:50;;;;;;;19.73;4.55;;;;;;;8.62;100.00;99586.44;5052038;28;20056;-62
2023/12/11 04:03:16;;;;;;;16.90;3.72;;;;;;;8.63;100.00;99582.16;5047582;28;20021;-63
2023/12/11 04:05:41;;;;;;;14.85;3.00;;;;;;;8.60;100.00;99582.94;5048129;28;20029;-63
2023/12/11 04:08:06;;;;;;;19.40;4.22;;;;;;;8.59;100.00;99590.66;5051516;28;20012;-62
2023/12/11 04:10:31;;;;;;;19.95;3.75;;;;;;;8.56;100.00;99581.16;5039279;28;20048;-62
2023/12/11 04:13:00;;;;;;;18.90;3.55;;;;;;;8.53;100.00;99586.19;5067361;28;20447;-62
2023/12/11 04:15:25;;;;;;;15.52;3.78;;;;;;;8.54;100.00;99590.53;5045070;28;20040;-62
2023/12/11 04:17:51;;;;;;;14.85;3.67;;;;;;;8.58;100.00;99589.78;5052805;28;20025;-62
2023/12/11 04:20:16;;;;;;;17.05;3.15;;;;;;;8.58;100.00;99583.75;5063852;28;20027;-63
2023/12/11 04:22:41;;;;;;;18.75;3.75;;;;;;;8.57;100.00;99580.31;5049787;28;20389;-62
2023/12/11 04:25:07;;;;;;;20.27;3.28;;;;;;;8.55;100.00;99600.03;5040328;28;20037;-62
2023/12/11 04:27:32;;;;;;;21.83;4.18;;;;;;;8.51;100.00;99596.50;5050208;28;20021;-62
2023/12/11 04:29:57;;;;;;;24.70;4.45;;;;;;;8.48;100.00;99591.28;5059394;28;20029;-62
2023/12/11 04:32:23;;;;;;;26.17;4.53;;;;;;;8.44;100.00;99583.47;5037433;28;20412;-63
2023/12/11 04:34:48;;;;;;;20.23;4.25;;;;;;;8.34;100.00;99570.34;5050556;28;20044;-62
2023/12/11 04:37:13;;;;;;;22.38;3.63;;;;;;;8.35;100.00;99572.09;5048205;28;20029;-62
2023/12/11 04:39:38;;;;;;;19.90;4.05;;;;;;;8.34;100.00;99570.34;5051019;28;20111;-62
2023/12/11 04:42:04;;;;;;;22.15;4.57;;;;;;;8.31;100.00;99562.53;5038258;28;20020;-62
2023/12/11 04:44:29;;;;;;;22.95;4.05;;;;;;;8.27;100.00;99558.16;5050892;28;20446;-62
2023/12/11 04:46:54;;;;;;;23.88;4.88;;;;;;;8.27;100.00;99560.75;5051391;28;20481;-62
2023/12/11 04:49:20;;;;;;;22.15;4.55;;;;;;;8.20;100.00;99551.13;5049797;28;20076;-62
2023/12/11 04:51:45;;;;;;;24.60;4.32;;;;;;;8.17;100.00;99550.22;5048699;28;20054;-62
2023/12/11 04:54:10;;;;;;;21.95;4.72;;;;;;;8.15;100.00;99544.16;5042118;28;20029;-62
2023/12/11 04:56:35;;;;;;;24.38;4.72;;;;;;;8.15;100.00;99545.84;5049404;28;20454;-62
2023/12/11 04:59:00;;;;;;;26.67;4.32;;;;;;;8.10;100.00;99545.75;5049581;28;20040;-62
2023/12/11 05:01:26;;;;;;;26.08;4.72;;;;;;;8.09;100.00;99544.03;5049366;28;20143;-63
2023/12/11 05:03:52;;;;;;;23.60;4.57;;;;;;;8.11;100.00;99550.06;5038398;28;20033;-63
2023/12/11 05:06:17;;;;;;;21.83;5.07;;;;;;;8.11;100.00;99557.81;5047718;28;20067;-63
2023/12/11 05:08:42;;;;;;;20.10;4.88;;;;;;;8.16;100.00;99550.19;5050283;28;20504;-62
2023/12/11 05:11:08;;;;;;;31.77;4.68;;;;;;;8.19;100.00;99546.78;5059045;28;20158;-62
2023/12/11 05:13:33;;;;;;;23.20;4.78;;;;;;;8.19;100.00;99545.06;5049664;28;20086;-63
2023/12/11 05:15:58;;;;;;;21.63;4.60;;;;;;;8.19;100.00;99541.63;5034893;28;20520;-63
2023/12/11 05:18:24;;;;;;;24.70;4.68;;;;;;;8.17;100.00;99562.22;5042115;28;20044;-62
2023/12/11 05:20:50;;;;;;;26.63;4.65;;;;;;;8.17;100.00;99563.13;5039950;28;20036;-62
2023/12/11 05:23:15;;;;;;;25.58;4.82;;;;;;;8.17;100.00;99557.94;5058254;28;20024;-63
2023/12/11 05:25:40;;;;;;;24.33;4.35;;;;;;;8.17;100.00;99557.94;5053690;28;20338;-63
2023/12/11 05:28:06;;;;;;;25.35;5.22;;;;;;;8.18;100.00;99551.09;5049765;28;20407;-63
2023/12/11 05:30:31;;;;;;;23.00;4.53;;;;;;;8.17;100.00;99557.94;5037457;28;20041;-63
2023/12/11 05:32:56;;;;;;;29.08;5.03;;;;;;;8.14;100.00;99563.06;5069159;28;20536;-62
2023/12/11 05:35:21;;;;;;;21.48;4.85;;;;;;;8.16;100.00;99566.53;5051159;28;20027;-62
2023/12/11 05:37:47;;;;;;;21.35;3.63;;;;;;;8.17;100.00;99565.69;5029589;28;20041;-63
2023/12/11 05:40:12;;;;;;;25.10;4.75;;;;;;;8.16;100.00;99566.53;5041733;28;20028;-63
2023/12/11 05:42:37;;;;;;;22.05;5.15;;;;;;;8.15;100.00;99559.63;5030226;28;20126;-63
2023/12/11 05:45:03;;;;;;;24.77;4.25;;;;;;;8.16;100.00;99561.38;5033245;28;20170;-62
2023/12/11 05:47:29;;;;;;;22.70;4.65;;;;;;;8.16;100.00;99543.31;5040719;28;20064;-63
2023/12/11 05:49:55;;;;;;;23.83;4.75;;;;;;;8.18;100.00;99543.34;5042817;28;20426;-62
2023/12/11 05:52:20;;;;;;;27.40;5.32;;;;;;;8.19;100.00;99549.34;5052180;28;20033;-62
2023/12/11 05:54:45;;;;;;;24.50;4.28;;;;;;;8.22;100.00;99545.13;5045755;28;20452;-62
2023/12/11 05:57:11;;;;;;;25.08;4.72;;;;;;;8.26;100.00;99551.22;5056358;28;20025;-62
2023/12/11 05:59:36;;;;;;;19.80;3.92;;;;;;;8.27;100.00;99550.41;5048104;28;20033;-62
2023/12/11 06:02:02;;;;;;;24.08;4.35;;;;;;;8.25;100.00;99552.09;5052229;28;20033;-63
2023/12/11 06:04:27;;;;;;;20.38;5.00;;;;;;;8.24;100.00;99553.78;5044360;28;20119;-62
2023/12/11 06:06:52;;;;;;;26.60;5.15;;;;;;;8.25;100.00;99550.38;5053995;28;20588;-63
2023/12/11 06:09:18;;;;;;;25.67;4.82;;;;;;;8.21;100.00;99538.25;5035548;28;20025;-62
2023/12/11 06:11:44;;;;;;;22.95;4.78;;;;;;;8.23;100.00;99543.44;5039295;28;20425;-62
2023/12/11 06:14:09;;;;;;;19.80;4.53;;;;;;;8.23;100.00;99535.69;5051947;28;20364;-62
2023/12/11 06:16:34;;;;;;;18.23;4.25;;;;;;;8.24;100.00;99545.19;5051475;28;20465;-62
2023/12/11 06:18:59;;;;;;;25.20;5.28;;;;;;;8.23;100.00;99548.59;5050448;28;20021;-62
2023/12/11 06:21:25;;;;;;;27.08;4.78;;;;;;;8.23;100.00;99548.59;5047535;28;20037;-62
2023/12/11 06:23:50;;;;;;;18.13;4.63;;;;;;;8.19;100.00;99549.34;5035130;28;20480;-63
2023/12/11 06:26:24;;;;;;;26.05;5.80;;;;;;;8.15;100.00;99553.59;5028467;28;20032;-62
2023/12/11 06:28:49;;;;;;;24.67;4.97;;;;;;;8.13;100.00;99553.56;5040865;28;20021;-62
2023/12/11 06:31:14;;;;;;;22.35;4.38;;;;;;;8.15;100.00;99549.31;5036806;28;20032;-62
2023/12/11 06:33:40;;;;;;;30.23;5.43;;;;;;;8.13;100.00;99556.13;5046613;28;20033;-63
2023/12/11 06:36:05;;;;;;;22.08;4.25;;;;;;;8.08;100.00;99550.00;5050002;28;20028;-62
2023/12/11 06:38:30;;;;;;;26.13;5.10;;;;;;;8.08;100.00;99538.84;5046541;28;20091;-63
2023/12/11 06:40:56;;;;;;;25.55;4.50;;;;;;;8.05;100.00;99543.09;5045858;28;20036;-62
2023/12/11 06:43:21;;;;;;;26.63;5.10;;;;;;;8.05;100.00;99553.41;5040376;28;20047;-62
2023/12/11 06:45:46;;;;;;;19.52;5.15;;;;;;;8.05;100.00;99560.28;5050552;28;20060;-62
2023/12/11 06:48:11;;;;;;;23.08;4.35;;;;;;;8.07;100.00;99550.84;5045116;28;20098;-62
2023/12/11 06:50:37;;;;;;;18.85;3.88;;;;;;;8.06;100.00;99549.09;5053757;28;20063;-62
2023/12/11 06:53:02;;;;;;;26.55;4.28;;;;;;;8.05;100.00;99558.56;5050194;28;20470;-62
2023/12/11 06:55:27;;;;;;;25.30;4.07;;;;;;;8.05;100.00;99558.56;5045542;28;20529;-63
2023/12/11 06:57:53;;;;;;;24.42;5.13;;;;;;;8.03;100.00;99559.38;5041697;28;20231;-62
2023/12/11 07:00:19;;;;;;;19.40;3.88;;;;;;;8.05;100.00;99563.72;5036332;28;20150;-62
2023/12/11 07:02:44;;;;;;;25.75;4.90;;;;;;;8.06;100.00;99567.16;5062087;28;20028;-62
2023/12/11 07:05:09;;;;;;;24.13;4.00;;;;;;;8.05;100.00;99562.84;5033355;28;20028;-63
2023/12/11 07:07:35;;;;;;;24.50;4.55;;;;;;;8.04;100.00;99566.28;5029327;28;20082;-62
2023/12/11 07:10:04;;;;;;;16.25;4.20;;;;;;;8.07;100.00;99563.75;5043526;28;20075;-63
2023/12/11 07:12:30;;;;;;;17.65;3.30;;;;;;;8.07;100.00;99571.50;5044363;28;20528;-62
2023/12/11 07:14:55;;;;;;;16.33;3.85;;;;;;;8.10;100.00;99570.69;5033611;28;20056;-62
2023/12/11 07:17:20;;;;;;;26.65;4.90;;;;;;;8.09;100.00;99572.41;5053314;28;20505;-62
2023/12/11 07:19:46;;;;;;;15.10;3.53;;;;;;;8.09;100.00;99572.41;5037376;28;20080;-62
2023/12/11 07:22:11;;;;;;;20.33;4.72;;;;;;;8.10;100.00;99591.31;5033796;28;20037;-62
2023/12/11 07:24:36;;;;;;;15.80;3.60;;;;;;;8.12;100.00;99593.13;5054292;28;20171;-62
2023/12/11 07:27:02;;;;;;;21.50;3.50;;;;;;;8.13;100.00;99581.94;5053865;28;20577;-62
2023/12/11 07:29:27;;;;;;;14.75;3.22;;;;;;;8.13;100.00;99597.44;5056961;28;20009;-63
2023/12/11 07:31:52;;;;;;;18.83;3.85;;;;;;;8.11;100.00;99599.09;5061114;28;20553;-63
2023/12/11 07:34:17;;;;;;;12.13;2.88;;;;;;;8.13;100.00;99610.31;5032234;28;20353;-62
2023/12/11 07:36:44;;;;;;;18.25;3.45;;;;;;;8.13;100.00;99612.06;5034560;28;20032;-63
2023/12/11 07:39:09;;;;;;;17.70;3.10;;;;;;;8.12;100.00;99615.47;5039885;28;20029;-62
2023/12/11 07:41:34;;;;;;;18.55;3.05;;;;;;;8.12;100.00;99631.81;5044361;28;20477;-63
2023/12/11 07:44:00;;;;;;;15.20;4.10;;;;;;;8.09;100.00;99628.28;5053017;28;20052;-62
2023/12/11 07:46:25;;;;;;;19.63;3.47;;;;;;;8.10;100.00;99628.31;5038839;28;20044;-63
2023/12/11 07:48:51;;;;;;;18.23;3.67;;;;;;;8.07;100.00;99638.59;5056876;28;20053;-62
2023/12/11 07:51:25;;;;;;;16.63;2.95;;;;;;;8.05;100.00;99629.94;5046836;28;20036;-62
2023/12/11 07:53:58;;;;;;;20.90;4.28;;;;;;;8.06;100.00;99631.66;5047437;28;20474;-62
2023/12/11 07:56:24;;;;;;;19.48;4.05;;;;;;;8.06;100.00;99641.97;5044934;28;20048;-63
2023/12/11 07:58:50;;;;;;;15.82;3.80;;;;;;;8.03;100.00;99647.09;5051234;28;20579;-63
2023/12/11 08:01:16;;;;;;;16.45;3.20;;;;;;;8.03;100.00;99658.28;5050023;28;20029;-62
2023/12/11 08:03:41;;;;;;;14.52;2.97;;;;;;;8.00;100.00;99655.63;5042222;28;20421;-62
2023/12/11 08:06:10;;;;;;;20.33;4.28;;;;;;;8.01;100.00;99654.78;5055593;28;20025;-63
2023/12/11 08:08:40;;;;;;;18.00;3.47;;;;;;;7.99;100.00;99658.16;5036263;28;20051;-62
2023/12/11 08:11:29;;;;;;;18.13;3.47;;;;;;;7.99;100.00;99671.06;5050743;28;20021;-61
2023/12/11 08:13:54;;;;;;;11.98;2.92;;;;;;;8.00;100.00;99653.06;5055329;28;20030;-62
2023/12/11 08:16:21;;;;;;;18.05;2.97;;;;;;;8.01;100.00;99674.56;5052951;28;20036;-64
2023/12/11 08:18:48;;;;;;;14.48;2.55;;;;;;;7.99;100.00;99682.25;5052580;28;20024;-63
2023/12/11 08:21:13;;;;;;;15.73;2.75;;;;;;;8.02;100.00;99684.06;5052061;28;20021;-63
2023/12/11 08:23:40;;;;;;;17.02;2.97;;;;;;;8.04;100.00;99680.66;5047326;28;20043;-62
2023/12/11 08:26:06;;;;;;;12.30;3.00;;;;;;;8.13;100.00;99694.63;5044648;28;20118;-62
2023/12/11 08:28:31;;;;;;;17.05;3.72;;;;;;;8.10;100.00;99695.41;5050673;28;20021;-62
2023/12/11 08:30:58;;;;;;;14.18;3.17;;;;;;;8.12;100.00;99703.19;5050498;28;20471;-63
2023/12/11 08:33:23;;;;;;;14.60;2.88;;;;;;;8.13;100.00;99700.66;5049913;28;20059;-63
2023/12/11 08:35:49;;;;;;;13.63;2.67;;;;;;;8.12;100.00;99708.34;5047515;28;20111;-62
2023/12/11 08:38:15;;;;;;;18.20;3.10;;;;;;;8.15;100.00;99727.38;5050285;28;20527;-62
2023/12/11 08:40:43;;;;;;;13.45;2.95;;;;;;;8.14;100.00;99727.34;5046498;28;20037;-63
2023/12/11 08:43:11;;;;;;;12.30;2.67;;;;;;;8.14;100.00;99733.38;5046465;28;20037;-63
2023/12/11 08:45:36;;;;;;;12.15;2.88;;;;;;;8.15;100.00;99748.00;5052012;28;20036;-62
2023/12/11 08:48:01;;;;;;;16.58;3.38;;;;;;;8.15;100.00;99745.44;5046385;28;20057;-62
2023/12/11 08:50:27;;;;;;;16.30;3.38;;;;;;;8.13;100.00;99751.41;5050936;28;20033;-62
2023/12/11 08:52:52;;;;;;;14.05;2.58;;;;;;;8.12;100.00;99754.81;5045877;28;20047;-62
2023/12/11 08:55:19;;;;;;;14.07;2.45;;;;;;;8.11;100.00;99777.16;5045867;28;20110;-63
2023/12/11 08:57:44;;;;;;;12.02;2.92;;;;;;;8.10;100.00;99787.44;5035716;28;20491;-62
2023/12/11 09:00:10;;;;;;;11.40;3.15;;;;;;;8.07;100.00;99783.09;5046771;28;20025;-62
2023/12/11 09:02:36;;;;;;;20.15;3.28;;;;;;;8.05;100.00;99784.75;5047698;28;20115;-63
2023/12/11 09:05:01;;;;;;;8.93;2.95;;;;;;;8.03;100.00;99791.56;5046588;28;20108;-63
2023/12/11 09:07:26;;;;;;;14.50;3.20;;;;;;;8.01;100.00;99788.06;5045880;28;20460;-62
2023/12/11 09:09:51;;;;;;;14.77;2.85;;;;;;;7.99;100.00;99789.75;5046118;28;20421;-62
2023/12/11 09:12:18;;;;;;;12.43;2.47;;;;;;;7.97;100.00;99796.59;5046853;28;20547;-63
2023/12/11 09:14:43;;;;;;;14.77;2.70;;;;;;;7.95;100.00;99798.25;5045805;28;20037;-62
2023/12/11 09:17:10;;;;;;;11.95;2.45;;;;;;;7.97;100.00;99804.34;5044045;28;20025;-62
2023/12/11 09:19:35;;;;;;;15.57;2.92;;;;;;;7.92;100.00;99805.06;5046824;28;20033;-62
2023/12/11 09:22:00;;;;;;;17.60;3.20;;;;;;;7.90;100.00;99822.22;5045675;28;20234;-62
2023/12/11 09:24:26;;;;;;;11.50;2.10;;;;;;;7.92;100.00;99820.56;5045729;28;20063;-62
2023/12/11 09:26:51;;;;;;;15.63;3.03;;;;;;;7.93;100.00;99822.28;5054233;28;20028;-62
2023/12/11 09:29:16;;;;;;;8.63;2.17;;;;;;;7.94;100.00;99833.50;5047362;28;20026;-61
2023/12/11 09:31:43;;;;;;;11.30;1.95;;;;;;;7.97;100.00;99837.88;5045218;28;20036;-62
2023/12/11 09:34:09;;;;;;;17.73;2.72;;;;;;;7.98;100.00;99847.34;5053106;28;20033;-62
2023/12/11 09:36:34;;;;;;;7.03;2.00;;;;;;;8.00;100.00;99853.44;5052829;28;20036;-62
2023/12/11 09:38:59;;;;;;;12.30;3.00;;;;;;;8.01;100.00;99857.75;5046805;28;20071;-63
2023/12/11 09:41:32;;;;;;;17.42;2.97;;;;;;;8.02;100.00;99862.09;5046128;28;20071;-62
2023/12/11 09:44:00;;;;;;;8.95;1.98;;;;;;;8.05;100.00;99867.31;5035294;28;20440;-62
2023/12/11 09:46:27;;;;;;;10.02;2.35;;;;;;;8.12;100.00;99865.78;5038712;28;20192;-62
2023/12/11 09:48:53;;;;;;;15.30;2.88;;;;;;;8.15;100.00;99878.75;5056801;28;20049;-61
2023/12/11 09:51:18;;;;;;;10.77;2.50;;;;;;;8.17;100.00;99880.53;5062553;28;20104;-62
2023/12/11 09:53:44;;;;;;;8.88;2.03;;;;;;;8.23;100.00;99902.19;5044061;28;20047;-62
2023/12/11 09:56:12;;;;;;;12.07;2.65;;;;;;;8.25;100.00;99900.53;5062779;28;20452;-63
2023/12/11 09:58:39;;;;;;;13.57;3.03;;;;;;;8.30;100.00;99898.94;5049339;28;20067;-62
2023/12/11 10:01:06;;;;;;;9.68;2.13;;;;;;;8.37;100.00;99906.00;5048224;28;20040;-63
2023/12/11 10:03:31;;;;;;;11.55;2.25;;;;;;;8.44;100.00;99911.34;5049900;28;20033;-61
2023/12/11 10:05:59;;;;;;;12.23;2.40;;;;;;;8.46;100.00;99913.13;5056671;28;20135;-62
2023/12/11 10:08:25;;;;;;;14.45;3.38;;;;;;;8.47;100.00;99919.16;5054009;28;20480;-62
2023/12/11 10:11:09;;;;;;;11.68;3.42;;;;;;;8.47;100.00;99921.75;5043980;28;20044;-62
2023/12/11 10:13:35;;;;;;;13.00;2.65;;;;;;;8.43;100.00;99925.97;5055372;28;20036;-62
2023/12/11 10:16:00;;;;;;;15.63;2.70;;;;;;;8.44;100.00;99926.84;5059813;28;20044;-62
2023/12/11 10:18:25;;;;;;;10.00;2.20;;;;;;;8.47;100.00;99935.50;5060931;28;20116;-61
2023/12/11 10:20:54;;;;;;;11.35;2.65;;;;;;;8.48;100.00;99933.81;5056385;28;20031;-62
2023/12/11 10:23:23;;;;;;;11.70;2.72;;;;;;;8.47;100.00;99926.91;5058785;28;20039;-63
2023/12/11 10:25:49;;;;;;;11.65;2.42;;;;;;;8.49;100.00;99940.75;5062703;28;20175;-63
2023/12/11 10:28:17;;;;;;;11.13;2.08;;;;;;;8.48;100.00;99938.97;5057085;28;20028;-62
2023/12/11 10:31:02;;;;;;;12.70;2.53;;;;;;;8.48;100.00;99945.03;5058422;28;20033;-63
2023/12/11 10:33:32;;;;;;;11.60;1.95;;;;;;;8.49;100.00;99941.59;5049625;28;20354;-62
2023/12/11 10:36:12;;;;;;;13.23;2.42;;;;;;;8.48;100.00;99959.63;5057341;28;20151;-62
2023/12/11 10:38:39;;;;;;;10.82;2.20;;;;;;;8.49;100.00;99971.72;5056708;28;20066;-63
2023/12/11 10:41:05;;;;;;;12.65;2.33;;;;;;;8.47;100.00;99971.66;5053468;28;20099;-63
2023/12/11 10:43:39;;;;;;;8.77;2.25;;;;;;;8.44;100.00;99958.69;5057685;28;20538;-63
2023/12/11 10:46:05;;;;;;;8.98;1.70;;;;;;;8.41;100.00;99980.13;5053183;28;20029;-61
2023/12/11 10:48:30;;;;;;;9.00;2.00;;;;;;;8.44;100.00;99979.31;5060150;28;20048;-63
2023/12/11 10:50:56;;;;;;;9.30;2.03;;;;;;;8.44;100.00;99975.91;5052563;28;20101;-62
2023/12/11 10:53:21;;;;;;;10.38;2.15;;;;;;;8.43;100.00;99990.50;5052794;28;20044;-62
2023/12/11 10:55:50;;;;;;;10.32;1.88;;;;;;;8.41;100.00;99987.88;5051389;28;20542;-62
2023/12/11 10:58:15;;;;;;;11.75;2.72;;;;;;;8.38;100.00;99995.53;5052716;28;20057;-62
2023/12/11 11:00:41;;;;;;;12.68;2.40;;;;;;;8.36;100.00;100007.53;5055598;28;20067;-61
2023/12/11 11:03:10;;;;;;;6.40;2.00;;;;;;;8.36;100.00;100011.81;5045256;28;20020;-62
2023/12/11 11:05:36;;;;;;;9.25;2.35;;;;;;;8.36;100.00;100007.53;5056315;28;20029;-62
2023/12/11 11:08:41;;;;;;;8.85;2.08;;;;;;;8.37;100.00;100019.59;5052947;28;20261;-62
2023/12/11 11:11:27;;;;;;;9.48;2.47;;;;;;;8.36;100.00;100016.97;5052533;28;20020;-63
2023/12/11 11:14:14;;;;;;;10.15;2.60;;;;;;;8.34;100.00;100040.19;5053676;28;20062;-63
2023/12/11 11:16:55;;;;;;;8.95;1.60;;;;;;;8.28;100.00;100045.16;5055378;28;20047;-63
2023/12/11 11:19:21;;;;;;;6.13;1.27;;;;;;;8.23;100.00;100051.91;5058778;28;20165;-62